KAHN/AHN METAR and TAF weather

Enter ICAO airport designator
Station Type Date Time Source
KAHN METAR 2019/09/21 04:51 UTC NOAA

KAHN 210451Z AUTO 08003KT 10SM CLR 16/11 A3029 RMK AO2 SLP252 T01610111 402830133 PWINO


Station Type Date Time Source
KAHN Decoded METAR 2019/09/21 04:51 UTC NOAA

ATHENS BEN EPPS AIRPORT, GA, United States (KAHN) 33-57N 083-20W 244M
Sep 21, 2019 - 12:51 AM EDT / 2019.09.21 0451 UTC
Wind: from the E (080 degrees) at 3 MPH (3 KT):0
Visibility: 10 mile(s):0
Sky conditions: clear
Temperature: 61.0 F (16.1 C)
Dew Point: 52.0 F (11.1 C)
Relative Humidity: 72%
Pressure (altimeter): 30.29 in. Hg (1025 hPa)
ob: KAHN 210451Z AUTO 08003KT 10SM CLR 16/11 A3029 RMK AO2 SLP252 T01610111 402830133 PWINO
cycle: 5

Station Type Date Time Source
KAHN TAF 2019/09/20 20:39 UTC NOAA

TAF
AMD KAHN 201935Z 2020/2118 10006KT P6SM SKC
FM210000 06003KT P6SM FEW250
FM211500 09005KT P6SM SCT250

Example: see airport list